createdAt,value
2022-08-17T00:00:57.104Z,15.66
2022-08-17T00:01:57.154Z,15.66
2022-08-17T00:02:57.082Z,15.60
2022-08-17T00:03:57.122Z,15.59
2022-08-17T00:04:57.055Z,15.58
2022-08-17T00:05:57.032Z,15.56
2022-08-17T00:06:57.060Z,15.52
2022-08-17T00:07:57.042Z,15.52
2022-08-17T00:08:57.002Z,15.53
2022-08-17T00:09:57.003Z,15.60
2022-08-17T00:10:56.982Z,15.59
2022-08-17T00:12:40.629Z,15.59
2022-08-17T00:12:57.941Z,15.60
2022-08-17T00:13:56.934Z,15.62
2022-08-17T00:14:56.912Z,15.59
2022-08-17T00:15:56.920Z,15.55
2022-08-17T00:16:57.725Z,15.55
2022-08-17T00:17:56.893Z,15.51
2022-08-17T00:19:07.041Z,15.52
2022-08-17T00:19:57.852Z,15.53
2022-08-17T00:20:56.851Z,15.51
2022-08-17T00:22:31.814Z,15.53
2022-08-17T00:22:58.132Z,15.55
2022-08-17T00:23:56.803Z,15.52
2022-08-17T00:24:56.796Z,15.52
2022-08-17T00:25:56.805Z,15.46
2022-08-17T00:26:56.802Z,15.43
2022-08-17T00:27:56.983Z,15.41
2022-08-17T00:28:56.920Z,15.38
2022-08-17T00:29:56.823Z,15.34
2022-08-17T00:30:56.773Z,15.33
2022-08-17T00:31:57.010Z,15.34
2022-08-17T00:33:15.640Z,15.33
2022-08-17T00:33:59.402Z,15.37
2022-08-17T00:34:56.651Z,15.40
2022-08-17T00:35:56.812Z,15.40
2022-08-17T00:36:56.880Z,15.43
2022-08-17T00:37:56.653Z,15.41
2022-08-17T00:38:56.722Z,15.43
2022-08-17T00:39:56.750Z,15.40
2022-08-17T00:40:59.183Z,15.43
2022-08-17T00:41:56.611Z,15.46
2022-08-17T00:42:56.564Z,15.48
2022-08-17T00:43:56.572Z,15.52
2022-08-17T00:44:56.523Z,15.51
2022-08-17T00:45:56.542Z,15.49
2022-08-17T00:46:56.554Z,15.48
2022-08-17T00:47:56.490Z,15.52
2022-08-17T00:48:56.463Z,15.48
2022-08-17T00:49:56.474Z,15.49
2022-08-17T00:50:56.434Z,15.51
2022-08-17T00:51:56.481Z,15.53
2022-08-17T00:52:56.441Z,15.55
2022-08-17T00:53:56.430Z,15.53
2022-08-17T00:54:56.451Z,15.49
2022-08-17T00:55:56.380Z,15.48
2022-08-17T00:56:56.398Z,15.48
2022-08-17T00:57:56.354Z,15.41
2022-08-17T00:58:56.371Z,15.43
2022-08-17T01:00:02.250Z,15.40
2022-08-17T01:00:57.373Z,15.38
2022-08-17T01:01:56.483Z,15.35
2022-08-17T01:02:56.400Z,15.33
2022-08-17T01:03:59.661Z,15.28
2022-08-17T01:04:56.245Z,15.27
2022-08-17T01:05:56.267Z,15.27
2022-08-17T01:06:56.256Z,15.25
2022-08-17T01:07:56.214Z,15.22
2022-08-17T01:08:57.539Z,15.19
2022-08-17T01:09:56.184Z,15.20
2022-08-17T01:10:59.864Z,15.19
2022-08-17T01:11:57.215Z,15.18
2022-08-17T01:12:56.149Z,15.19
2022-08-17T01:13:56.216Z,15.15
2022-08-17T01:14:56.115Z,15.18
2022-08-17T01:15:56.115Z,15.13
2022-08-17T01:16:56.134Z,15.15
2022-08-17T01:17:56.083Z,15.12
2022-08-17T01:18:56.075Z,15.15
2022-08-17T01:19:56.056Z,15.15
2022-08-17T01:20:56.044Z,15.13
2022-08-17T01:21:56.058Z,15.12
2022-08-17T01:22:56.015Z,15.15
2022-08-17T01:23:55.995Z,15.18
2022-08-17T01:24:55.992Z,15.22
2022-08-17T01:25:55.974Z,15.20
2022-08-17T01:26:56.709Z,15.28
2022-08-17T01:27:55.945Z,15.22
2022-08-17T01:28:56.061Z,15.25
2022-08-17T01:29:55.948Z,15.27
2022-08-17T01:30:57.879Z,15.30
2022-08-17T01:31:55.923Z,15.25
2022-08-17T01:32:55.884Z,15.30
2022-08-17T01:33:55.965Z,15.30
2022-08-17T01:34:55.856Z,15.31
2022-08-17T01:35:55.857Z,15.35
2022-08-17T01:36:55.874Z,15.37
2022-08-17T01:37:55.814Z,15.35
2022-08-17T01:38:55.803Z,15.37
2022-08-17T01:39:55.869Z,15.34
2022-08-17T01:40:57.479Z,15.37
2022-08-17T01:41:55.784Z,15.37
2022-08-17T01:42:55.754Z,15.38
2022-08-17T01:43:55.726Z,15.37
2022-08-17T01:44:55.735Z,15.35
2022-08-17T01:46:02.821Z,15.34
2022-08-17T01:46:56.723Z,15.35
2022-08-17T01:47:55.675Z,15.34
2022-08-17T01:48:55.687Z,15.30
2022-08-17T01:49:55.647Z,15.33
2022-08-17T01:50:55.644Z,15.34
2022-08-17T01:51:55.686Z,15.38
2022-08-17T01:52:55.617Z,15.35
2022-08-17T01:53:55.596Z,15.38
2022-08-17T01:54:55.596Z,15.38
2022-08-17T01:55:55.579Z,15.37
2022-08-17T01:56:55.594Z,15.37
2022-08-17T01:57:55.546Z,15.37
2022-08-17T01:58:55.542Z,15.38
2022-08-17T01:59:55.517Z,15.38
2022-08-17T02:01:00.445Z,15.35
2022-08-17T02:01:56.550Z,15.35
2022-08-17T02:02:55.503Z,15.33
2022-08-17T02:04:00.413Z,15.30
2022-08-17T02:04:56.526Z,15.28
2022-08-17T02:05:55.442Z,15.27
2022-08-17T02:06:55.457Z,15.22
2022-08-17T02:07:59.640Z,15.19
2022-08-17T02:09:01.682Z,15.13
2022-08-17T02:09:56.387Z,15.09
2022-08-17T02:10:55.376Z,15.12
2022-08-17T02:11:56.378Z,15.05
2022-08-17T02:12:55.348Z,15.11
2022-08-17T02:14:02.489Z,15.13
2022-08-17T02:14:56.316Z,15.13
2022-08-17T02:15:55.312Z,15.16
2022-08-17T02:16:55.329Z,15.13
2022-08-17T02:17:55.286Z,15.11
2022-08-17T02:18:55.268Z,15.13
2022-08-17T02:19:55.250Z,15.09
2022-08-17T02:20:55.236Z,15.05
2022-08-17T02:21:55.268Z,15.05
2022-08-17T02:22:55.247Z,15.04
2022-08-17T02:23:55.196Z,15.07
2022-08-17T02:24:58.812Z,15.07
2022-08-17T02:25:56.176Z,15.07
2022-08-17T02:26:55.194Z,15.11
2022-08-17T02:27:55.167Z,15.09
2022-08-17T02:28:55.137Z,15.12
2022-08-17T02:29:55.123Z,15.11
2022-08-17T02:31:00.912Z,15.09
2022-08-17T02:31:56.120Z,15.07
2022-08-17T02:32:55.086Z,15.04
2022-08-17T02:34:00.600Z,15.01
2022-08-17T02:34:56.111Z,15.00
2022-08-17T02:35:55.048Z,15.01
2022-08-17T02:36:55.067Z,14.97
2022-08-17T02:37:55.686Z,14.97
2022-08-17T02:38:55.017Z,14.97
2022-08-17T02:39:55.051Z,15.00
2022-08-17T02:40:54.978Z,14.98
2022-08-17T02:41:54.998Z,14.98
2022-08-17T02:42:54.951Z,14.95
2022-08-17T02:43:54.952Z,14.98
2022-08-17T02:44:54.939Z,14.93
2022-08-17T02:45:55.340Z,14.97
2022-08-17T02:46:54.938Z,14.95
2022-08-17T02:47:54.888Z,14.90
2022-08-17T02:48:54.876Z,14.91
2022-08-17T02:49:55.756Z,14.90
2022-08-17T02:50:54.847Z,14.83
2022-08-17T02:51:54.857Z,14.80
2022-08-17T02:53:02.362Z,14.79
2022-08-17T02:54:35.844Z,14.78
2022-08-17T02:54:55.796Z,14.79
2022-08-17T02:55:54.777Z,14.82
2022-08-17T02:56:54.810Z,14.80
2022-08-17T02:57:54.750Z,14.79
2022-08-17T02:58:54.745Z,14.82
2022-08-17T02:59:54.718Z,14.82
2022-08-17T03:00:54.707Z,14.82
2022-08-17T03:01:54.788Z,14.79
2022-08-17T03:02:54.690Z,14.82
2022-08-17T03:03:54.788Z,14.83
2022-08-17T03:04:54.661Z,14.79
2022-08-17T03:05:54.681Z,14.83
2022-08-17T03:06:54.658Z,14.83
2022-08-17T03:07:54.618Z,14.79
2022-08-17T03:08:54.625Z,14.75
2022-08-17T03:09:54.589Z,14.75
2022-08-17T03:10:54.580Z,14.75
2022-08-17T03:11:55.820Z,14.72
2022-08-17T03:12:54.557Z,14.69
2022-08-17T03:13:54.538Z,14.72
2022-08-17T03:14:54.528Z,14.74
2022-08-17T03:15:54.510Z,14.72
2022-08-17T03:16:54.610Z,14.74
2022-08-17T03:17:54.505Z,14.75
2022-08-17T03:18:54.472Z,14.78
2022-08-17T03:19:54.459Z,14.78
2022-08-17T03:20:54.484Z,14.78
2022-08-17T03:21:55.376Z,14.79
2022-08-17T03:22:54.953Z,14.79
2022-08-17T03:23:55.398Z,14.78
2022-08-17T03:24:54.396Z,14.72
2022-08-17T03:25:54.376Z,14.72
2022-08-17T03:26:54.411Z,14.71
2022-08-17T03:27:54.354Z,14.66
2022-08-17T03:28:54.350Z,14.67
2022-08-17T03:29:54.347Z,14.63
2022-08-17T03:30:54.345Z,14.56
2022-08-17T03:31:54.338Z,14.54
2022-08-17T03:32:54.251Z,14.52
2022-08-17T03:33:54.280Z,14.49
2022-08-17T03:34:54.260Z,14.44
2022-08-17T03:35:54.241Z,14.45
2022-08-17T03:36:54.189Z,14.42
2022-08-17T03:38:01.025Z,14.42
2022-08-17T03:38:55.219Z,14.42
2022-08-17T03:39:54.233Z,14.41
2022-08-17T03:40:59.092Z,14.39
2022-08-17T03:41:55.099Z,14.41
2022-08-17T03:42:54.139Z,14.41
2022-08-17T03:43:54.151Z,14.39
2022-08-17T03:44:54.130Z,14.38
2022-08-17T03:45:54.069Z,14.36
2022-08-17T03:46:54.046Z,14.38
2022-08-17T03:47:54.059Z,14.35
2022-08-17T03:48:54.020Z,14.39
2022-08-17T03:49:54.001Z,14.44
2022-08-17T03:50:53.997Z,14.44
2022-08-17T03:51:54.032Z,14.45
2022-08-17T03:52:54.061Z,14.46
2022-08-17T03:53:53.951Z,14.46
2022-08-17T03:54:53.948Z,14.49
2022-08-17T03:55:53.940Z,14.54
2022-08-17T03:56:53.920Z,14.53
2022-08-17T03:57:53.934Z,14.56
2022-08-17T03:58:53.970Z,14.60
2022-08-17T03:59:53.900Z,14.59
2022-08-17T04:00:53.859Z,14.61
2022-08-17T04:01:53.927Z,14.61
2022-08-17T04:02:53.861Z,14.64
2022-08-17T04:03:53.820Z,14.66
2022-08-17T04:04:53.884Z,14.69
2022-08-17T04:05:53.902Z,14.71
2022-08-17T04:06:53.888Z,14.75
2022-08-17T04:07:53.790Z,14.80
2022-08-17T04:08:53.761Z,14.78
2022-08-17T04:09:53.742Z,14.78
2022-08-17T04:10:53.732Z,14.78
2022-08-17T04:11:53.718Z,14.82
2022-08-17T04:12:53.731Z,14.82
2022-08-17T04:13:53.681Z,14.86
2022-08-17T04:14:55.045Z,14.83
2022-08-17T04:15:53.674Z,14.86
2022-08-17T04:16:53.650Z,14.83
2022-08-17T04:17:53.701Z,14.83
2022-08-17T04:18:53.628Z,14.79
2022-08-17T04:19:53.620Z,14.80
2022-08-17T04:20:53.624Z,14.72
2022-08-17T04:21:53.583Z,14.75
2022-08-17T04:22:53.611Z,14.72
2022-08-17T04:23:53.551Z,14.69
2022-08-17T04:24:53.540Z,14.69
2022-08-17T04:25:53.540Z,14.69
2022-08-17T04:26:54.694Z,14.74
2022-08-17T04:27:53.540Z,14.75
2022-08-17T04:28:53.490Z,14.79
2022-08-17T04:29:55.391Z,14.80
2022-08-17T04:30:53.463Z,14.83
2022-08-17T04:31:53.478Z,14.90
2022-08-17T04:33:05.269Z,14.93
2022-08-17T04:33:54.421Z,14.94
2022-08-17T04:34:53.428Z,14.95
2022-08-17T04:35:53.481Z,15.00
2022-08-17T04:36:53.405Z,15.01
2022-08-17T04:37:53.399Z,15.05
2022-08-17T04:38:53.357Z,15.04
2022-08-17T04:39:53.414Z,15.05
2022-08-17T04:40:53.334Z,15.07
2022-08-17T04:41:53.340Z,15.11
2022-08-17T04:42:53.662Z,15.13
2022-08-17T04:43:54.311Z,15.16
2022-08-17T04:44:53.282Z,15.18
2022-08-17T04:45:55.826Z,15.19
2022-08-17T04:46:53.254Z,15.23
2022-08-17T04:47:53.271Z,15.20
2022-08-17T04:48:53.242Z,15.25
2022-08-17T04:49:53.210Z,15.27
2022-08-17T04:50:53.202Z,15.31
2022-08-17T04:51:54.510Z,15.28
2022-08-17T04:52:53.201Z,15.33
2022-08-17T04:53:54.022Z,15.35
2022-08-17T04:54:53.164Z,15.34
2022-08-17T04:55:53.192Z,15.38
2022-08-17T04:56:53.123Z,15.40
2022-08-17T04:57:53.131Z,15.40
2022-08-17T04:58:53.093Z,15.44
2022-08-17T04:59:53.081Z,15.44
2022-08-17T05:00:53.198Z,15.48
2022-08-17T05:01:53.363Z,15.51
2022-08-17T05:02:53.327Z,15.53
2022-08-17T05:03:53.023Z,15.53
2022-08-17T05:04:53.012Z,15.58
2022-08-17T05:05:53.001Z,15.58
2022-08-17T05:06:52.992Z,15.62
2022-08-17T05:07:53.072Z,15.68
2022-08-17T05:08:52.961Z,15.70
2022-08-17T05:09:52.943Z,15.73
2022-08-17T05:10:52.933Z,15.74
2022-08-17T05:11:52.945Z,15.80
2022-08-17T05:12:52.924Z,15.78
2022-08-17T05:13:52.911Z,15.84
2022-08-17T05:14:52.882Z,15.86
2022-08-17T05:15:52.917Z,15.91
2022-08-17T05:16:57.065Z,15.91
2022-08-17T05:17:52.832Z,15.92
2022-08-17T05:18:52.854Z,15.92
2022-08-17T05:19:52.812Z,15.96
2022-08-17T05:20:52.803Z,15.96
2022-08-17T05:21:52.787Z,16.01
2022-08-17T05:22:52.889Z,16.03
2022-08-17T05:23:54.799Z,16.06
2022-08-17T05:24:55.515Z,16.04
2022-08-17T05:25:52.734Z,16.06
2022-08-17T05:26:52.733Z,16.08
2022-08-17T05:27:52.703Z,16.10
2022-08-17T05:28:52.733Z,16.13
2022-08-17T05:29:52.673Z,16.16
2022-08-17T05:30:52.663Z,16.14
2022-08-17T05:31:52.673Z,16.17
2022-08-17T05:32:52.777Z,16.18
2022-08-17T05:33:52.653Z,16.26
2022-08-17T05:34:52.625Z,16.26
2022-08-17T05:35:52.594Z,16.27
2022-08-17T05:36:52.593Z,16.32
2022-08-17T05:37:52.564Z,16.36
2022-08-17T05:38:52.594Z,16.42
2022-08-17T05:39:52.560Z,16.44
2022-08-17T05:40:52.830Z,16.48
2022-08-17T05:41:52.524Z,16.50
2022-08-17T05:42:52.807Z,16.57
2022-08-17T05:43:56.227Z,16.57
2022-08-17T05:44:52.474Z,16.66
2022-08-17T05:45:55.319Z,16.70
2022-08-17T05:46:52.445Z,16.78
2022-08-17T05:47:52.445Z,16.81
2022-08-17T05:48:52.456Z,16.87
2022-08-17T05:49:53.806Z,16.92
2022-08-17T05:50:52.405Z,16.99
2022-08-17T05:51:52.422Z,17.02
2022-08-17T05:52:52.447Z,17.07
2022-08-17T05:53:52.385Z,17.10
2022-08-17T05:54:52.335Z,17.17
2022-08-17T05:55:52.501Z,17.22
2022-08-17T05:56:52.315Z,17.27
2022-08-17T05:57:54.105Z,17.28
2022-08-17T05:58:52.315Z,17.35
2022-08-17T05:59:52.275Z,17.38
2022-08-17T06:00:52.379Z,17.43
2022-08-17T06:01:52.245Z,17.46
2022-08-17T06:02:52.508Z,17.53
2022-08-17T06:03:52.256Z,17.60
2022-08-17T06:04:52.204Z,17.66
2022-08-17T06:05:52.206Z,17.76
2022-08-17T06:06:52.256Z,17.80
2022-08-17T06:07:52.166Z,17.89
2022-08-17T06:08:52.187Z,17.96
2022-08-17T06:09:52.147Z,18.04
2022-08-17T06:10:52.138Z,18.10
2022-08-17T06:11:53.536Z,18.19
2022-08-17T06:12:52.235Z,18.25
2022-08-17T06:13:52.087Z,18.32
2022-08-17T06:14:52.146Z,18.38
2022-08-17T06:15:52.066Z,18.46
2022-08-17T06:16:52.091Z,18.54
2022-08-17T06:17:52.039Z,18.59
2022-08-17T06:18:52.052Z,18.66
2022-08-17T06:19:52.007Z,18.75
2022-08-17T06:20:51.996Z,18.86
2022-08-17T06:21:51.989Z,18.87
2022-08-17T06:22:52.207Z,18.94
2022-08-17T06:23:52.319Z,19.01
2022-08-17T06:24:51.947Z,19.09
2022-08-17T06:25:51.928Z,19.12
2022-08-17T06:26:51.920Z,19.17
2022-08-17T06:27:53.475Z,19.25
2022-08-17T06:28:51.976Z,19.28
2022-08-17T06:29:51.877Z,19.35
2022-08-17T06:31:00.191Z,19.45
2022-08-17T06:31:52.856Z,19.49
2022-08-17T06:32:52.107Z,19.60
2022-08-17T06:33:51.858Z,19.64
2022-08-17T06:34:51.918Z,19.70
2022-08-17T06:35:51.799Z,19.79
2022-08-17T06:36:51.790Z,19.83
2022-08-17T06:37:51.768Z,19.90
2022-08-17T06:38:51.908Z,19.95
2022-08-17T06:39:51.799Z,20.00
2022-08-17T06:40:51.761Z,20.07
2022-08-17T06:41:51.778Z,20.12
2022-08-17T06:43:04.011Z,20.16
2022-08-17T06:43:52.720Z,20.25
2022-08-17T06:44:51.768Z,20.31
2022-08-17T06:45:51.700Z,20.41
2022-08-17T06:46:51.807Z,20.53
2022-08-17T06:47:51.641Z,20.57
2022-08-17T06:48:51.650Z,20.58
2022-08-17T06:49:55.287Z,20.61
2022-08-17T06:50:51.601Z,20.63
2022-08-17T06:51:51.699Z,20.63
2022-08-17T06:52:51.571Z,20.68
2022-08-17T06:53:51.593Z,20.68
2022-08-17T06:54:51.540Z,20.71
2022-08-17T06:55:52.301Z,20.75
2022-08-17T06:56:54.620Z,20.75
2022-08-17T06:57:52.322Z,20.78
2022-08-17T06:58:51.521Z,20.82
2022-08-17T06:59:55.515Z,20.85
2022-08-17T07:00:58.102Z,20.94
2022-08-17T07:01:52.461Z,21.01
2022-08-17T07:02:52.631Z,21.18
2022-08-17T07:03:51.769Z,21.40
2022-08-17T07:04:51.417Z,21.63
2022-08-17T07:05:51.417Z,21.79
2022-08-17T07:06:51.394Z,21.79
2022-08-17T07:07:51.391Z,21.79
2022-08-17T07:08:51.438Z,21.82
2022-08-17T07:09:51.352Z,21.93
2022-08-17T07:10:51.351Z,21.91
2022-08-17T07:11:51.322Z,21.99
2022-08-17T07:12:51.496Z,22.17
2022-08-17T07:13:51.755Z,22.35
2022-08-17T07:14:51.304Z,22.42
2022-08-17T07:15:55.177Z,22.48
2022-08-17T07:16:52.255Z,22.79
2022-08-17T07:17:51.313Z,23.14
2022-08-17T07:18:51.264Z,23.44
2022-08-17T07:19:51.220Z,23.52
2022-08-17T07:20:51.224Z,23.53
2022-08-17T07:21:51.194Z,23.56
2022-08-17T07:22:59.800Z,23.59
2022-08-17T07:23:52.201Z,23.52
2022-08-17T07:24:51.153Z,23.42
2022-08-17T07:25:51.151Z,23.35
2022-08-17T07:26:51.134Z,23.25
2022-08-17T07:27:51.334Z,23.22
2022-08-17T07:28:51.125Z,23.26
2022-08-17T07:29:51.093Z,23.29
2022-08-17T07:30:51.075Z,23.26
2022-08-17T07:31:51.066Z,23.26
2022-08-17T07:32:51.052Z,23.21
2022-08-17T07:33:51.075Z,23.19
2022-08-17T07:34:51.028Z,23.21
2022-08-17T07:35:51.023Z,23.19
2022-08-17T07:36:50.995Z,23.23
2022-08-17T07:37:51.196Z,23.29
2022-08-17T07:38:51.005Z,23.34
2022-08-17T07:40:14.768Z,23.41
2022-08-17T07:40:52.237Z,23.53
2022-08-17T07:41:57.896Z,23.63
2022-08-17T07:42:51.927Z,23.69
2022-08-17T07:43:50.936Z,23.77
2022-08-17T07:44:50.947Z,23.82
2022-08-17T07:45:50.907Z,23.87
2022-08-17T07:46:50.873Z,23.97
2022-08-17T07:47:51.016Z,23.96
2022-08-17T07:48:50.875Z,24.00
2022-08-17T07:49:50.828Z,24.00
2022-08-17T07:50:50.891Z,24.05
2022-08-17T07:51:50.806Z,24.15
2022-08-17T07:52:52.534Z,24.19
2022-08-17T07:53:50.809Z,24.26
2022-08-17T07:54:50.765Z,24.37
2022-08-17T07:55:50.749Z,24.41
2022-08-17T07:56:50.738Z,24.56
2022-08-17T07:57:50.853Z,24.75
2022-08-17T07:58:50.739Z,24.99
2022-08-17T07:59:50.702Z,25.26
2022-08-17T08:00:50.683Z,25.59
2022-08-17T08:01:53.894Z,25.74
2022-08-17T08:02:51.665Z,26.19
2022-08-17T08:03:52.556Z,26.78
2022-08-17T08:05:00.603Z,27.05
2022-08-17T08:05:51.620Z,27.28
2022-08-17T08:06:50.612Z,27.21
2022-08-17T08:07:50.759Z,27.21
2022-08-17T08:08:50.609Z,27.13
2022-08-17T08:09:50.583Z,27.11
2022-08-17T08:10:50.552Z,27.30
2022-08-17T08:11:50.542Z,27.49
2022-08-17T08:12:53.701Z,27.69
2022-08-17T08:13:50.559Z,27.86
2022-08-17T08:14:50.513Z,27.83
2022-08-17T08:15:54.053Z,27.71
2022-08-17T08:16:50.473Z,27.72
2022-08-17T08:17:50.603Z,27.69
2022-08-17T08:18:55.781Z,27.77
2022-08-17T08:19:51.438Z,27.81
2022-08-17T08:20:51.861Z,27.98
2022-08-17T08:21:50.411Z,28.15
2022-08-17T08:22:50.923Z,28.21
2022-08-17T08:23:50.416Z,28.11
2022-08-17T08:24:50.369Z,28.24
2022-08-17T08:25:53.510Z,28.30
2022-08-17T08:26:50.381Z,28.38
2022-08-17T08:27:50.573Z,28.33
2022-08-17T08:28:50.405Z,28.09
2022-08-17T08:29:50.305Z,28.09
2022-08-17T08:30:50.285Z,28.17
2022-08-17T08:31:50.277Z,28.01
2022-08-17T08:32:50.570Z,27.87
2022-08-17T08:33:50.278Z,27.91
2022-08-17T08:35:01.145Z,27.91
2022-08-17T08:35:52.004Z,28.13
2022-08-17T08:36:58.144Z,28.46
2022-08-17T08:37:51.313Z,28.62
2022-08-17T08:38:50.216Z,29.12
2022-08-17T08:39:50.256Z,29.44
2022-08-17T08:40:50.226Z,29.82
2022-08-17T08:41:50.301Z,29.95
2022-08-17T08:42:50.234Z,30.11
2022-08-17T08:43:53.004Z,30.37
2022-08-17T08:45:00.884Z,30.30
2022-08-17T08:45:51.093Z,30.01
2022-08-17T08:46:50.069Z,29.73
2022-08-17T08:47:50.219Z,29.60
2022-08-17T08:48:56.704Z,29.54
2022-08-17T08:50:06.426Z,29.35
2022-08-17T08:50:51.050Z,29.23
2022-08-17T08:51:51.692Z,29.11
2022-08-17T08:52:50.015Z,29.07
2022-08-17T08:53:50.022Z,29.02
2022-08-17T08:54:49.970Z,28.95
2022-08-17T08:55:49.971Z,28.72
2022-08-17T08:57:21.882Z,28.72
2022-08-17T08:57:51.108Z,28.72
2022-08-17T08:58:49.936Z,28.73
2022-08-17T08:59:51.226Z,28.74
2022-08-17T09:00:50.885Z,28.77
2022-08-17T09:01:49.910Z,28.83
2022-08-17T09:02:49.863Z,29.03
2022-08-17T09:03:53.146Z,29.29
2022-08-17T09:05:13.023Z,29.51
2022-08-17T09:05:50.825Z,29.49
2022-08-17T09:06:49.804Z,29.48
2022-08-17T09:07:49.874Z,29.57
2022-08-17T09:08:49.818Z,29.66
2022-08-17T09:09:49.775Z,29.58
2022-08-17T09:10:49.762Z,29.48
2022-08-17T09:12:02.521Z,29.29
2022-08-17T09:12:50.728Z,29.11
2022-08-17T09:13:54.699Z,28.95
2022-08-17T09:14:50.722Z,28.92
2022-08-17T09:15:49.699Z,28.80
2022-08-17T09:16:49.677Z,28.80
2022-08-17T09:17:55.738Z,28.95
2022-08-17T09:19:00.698Z,29.23
2022-08-17T09:19:50.639Z,29.85
2022-08-17T09:20:50.333Z,30.25
2022-08-17T09:21:49.619Z,30.60
2022-08-17T09:22:49.599Z,30.83
2022-08-17T09:23:49.628Z,31.19
2022-08-17T09:24:49.580Z,31.57
2022-08-17T09:25:49.573Z,31.57
2022-08-17T09:26:49.560Z,31.57
2022-08-17T09:27:49.780Z,32.09
2022-08-17T09:28:49.564Z,32.51
2022-08-17T09:29:49.519Z,33.00
2022-08-17T09:30:49.493Z,33.43
2022-08-17T09:31:49.711Z,33.82
2022-08-17T09:32:49.485Z,33.89
2022-08-17T09:33:49.492Z,33.75
2022-08-17T09:34:49.441Z,33.34
2022-08-17T09:35:49.463Z,33.00
2022-08-17T09:36:49.422Z,32.66
2022-08-17T09:37:49.672Z,32.77
2022-08-17T09:38:49.423Z,33.12
2022-08-17T09:39:49.553Z,33.24
2022-08-17T09:40:49.504Z,33.50
2022-08-17T09:41:49.585Z,33.56
2022-08-17T09:42:49.353Z,33.55
2022-08-17T09:43:49.472Z,33.45
2022-08-17T09:44:49.325Z,33.15
2022-08-17T09:45:49.311Z,32.88
2022-08-17T09:46:49.295Z,32.73
2022-08-17T09:47:49.331Z,32.62
2022-08-17T09:48:49.311Z,32.50
2022-08-17T09:49:49.272Z,32.65
2022-08-17T09:51:05.013Z,32.76
2022-08-17T09:51:50.276Z,32.77
2022-08-17T09:52:49.221Z,32.63
2022-08-17T09:53:49.821Z,32.50
2022-08-17T09:54:49.196Z,32.41
2022-08-17T09:55:49.188Z,32.25
2022-08-17T09:57:00.911Z,31.98
2022-08-17T09:57:52.032Z,31.64
2022-08-17T09:58:49.169Z,31.37
2022-08-17T09:59:49.128Z,31.18
2022-08-17T10:00:49.202Z,30.93
2022-08-17T10:01:49.114Z,30.79
2022-08-17T10:02:49.091Z,30.59
2022-08-17T10:03:49.109Z,30.48
2022-08-17T10:04:49.060Z,30.29
2022-08-17T10:05:49.052Z,30.19
2022-08-17T10:06:49.040Z,30.15
2022-08-17T10:07:49.090Z,29.97
2022-08-17T10:08:49.053Z,29.89
2022-08-17T10:09:49.002Z,29.74
2022-08-17T10:10:52.346Z,29.67
2022-08-17T10:11:50.296Z,29.60
2022-08-17T10:12:48.963Z,29.49
2022-08-17T10:13:52.800Z,29.41
2022-08-17T10:14:53.478Z,29.33
2022-08-17T10:15:49.923Z,29.27
2022-08-17T10:16:48.913Z,29.23
2022-08-17T10:17:49.190Z,29.14
2022-08-17T10:18:48.940Z,29.15
2022-08-17T10:19:48.884Z,29.08
2022-08-17T10:20:48.863Z,29.10
2022-08-17T10:21:48.846Z,29.10
2022-08-17T10:22:53.033Z,29.07
2022-08-17T10:23:48.866Z,29.08
2022-08-17T10:25:23.227Z,29.07
2022-08-17T10:25:55.207Z,29.11
2022-08-17T10:26:56.208Z,29.14
2022-08-17T10:27:49.915Z,29.12
2022-08-17T10:28:48.797Z,29.15
2022-08-17T10:29:49.720Z,29.14
2022-08-17T10:30:50.126Z,29.15
2022-08-17T10:31:48.719Z,29.15
2022-08-17T10:32:48.708Z,29.18
2022-08-17T10:33:48.738Z,29.23
2022-08-17T10:34:48.689Z,29.26
2022-08-17T10:35:48.666Z,29.30
2022-08-17T10:36:48.688Z,29.37
2022-08-17T10:37:48.763Z,29.48
2022-08-17T10:38:48.683Z,29.54
2022-08-17T10:39:51.873Z,29.67
2022-08-17T10:40:48.731Z,29.78
2022-08-17T10:41:48.692Z,29.91
2022-08-17T10:42:48.620Z,29.97
2022-08-17T10:44:37.573Z,30.06
2022-08-17T10:44:49.551Z,30.11
2022-08-17T10:45:48.611Z,30.18
2022-08-17T10:46:49.529Z,30.18
2022-08-17T10:47:55.645Z,30.21
2022-08-17T10:48:49.554Z,30.19
2022-08-17T10:49:48.532Z,30.08
2022-08-17T10:50:48.544Z,30.07
2022-08-17T10:51:48.464Z,30.01
2022-08-17T10:52:48.456Z,29.85
2022-08-17T10:53:48.521Z,29.82
2022-08-17T10:54:48.503Z,29.73
2022-08-17T10:55:48.561Z,29.74
2022-08-17T10:56:48.495Z,29.71
2022-08-17T10:57:48.446Z,29.73
2022-08-17T10:58:48.404Z,29.70
2022-08-17T10:59:48.355Z,29.67
2022-08-17T11:00:48.373Z,29.64
2022-08-17T11:01:48.329Z,29.62
2022-08-17T11:02:48.317Z,29.57
2022-08-17T11:03:52.426Z,29.49
2022-08-17T11:04:48.355Z,29.48
2022-08-17T11:05:48.286Z,29.41
2022-08-17T11:06:50.498Z,29.33
2022-08-17T11:07:49.206Z,29.32
2022-08-17T11:08:49.051Z,29.26
2022-08-17T11:09:50.270Z,29.27
2022-08-17T11:10:52.126Z,29.26
2022-08-17T11:11:48.478Z,29.30
2022-08-17T11:12:48.210Z,29.33
2022-08-17T11:13:48.545Z,29.42
2022-08-17T11:14:50.899Z,29.52
2022-08-17T11:15:48.310Z,29.64
2022-08-17T11:16:48.271Z,29.79
2022-08-17T11:17:48.123Z,30.06
2022-08-17T11:18:48.310Z,30.38
2022-08-17T11:19:48.092Z,30.68
2022-08-17T11:20:48.090Z,30.93
2022-08-17T11:21:48.070Z,31.07
2022-08-17T11:22:48.110Z,31.32
2022-08-17T11:23:48.062Z,31.41
2022-08-17T11:24:48.044Z,31.59
2022-08-17T11:25:48.019Z,31.72
2022-08-17T11:26:48.012Z,31.75
2022-08-17T11:27:47.994Z,31.91
2022-08-17T11:28:48.027Z,31.94
2022-08-17T11:29:52.539Z,31.85
2022-08-17T11:30:49.024Z,31.54
2022-08-17T11:31:47.936Z,31.40
2022-08-17T11:32:52.006Z,31.10
2022-08-17T11:33:48.945Z,30.90
2022-08-17T11:34:47.905Z,30.63
2022-08-17T11:35:47.965Z,30.40
2022-08-17T11:36:48.492Z,30.22
2022-08-17T11:37:48.055Z,30.03
2022-08-17T11:38:47.885Z,29.86
2022-08-17T11:39:48.049Z,29.74
2022-08-17T11:40:47.829Z,29.62
2022-08-17T11:41:47.810Z,29.52
2022-08-17T11:42:47.887Z,29.45
2022-08-17T11:43:47.826Z,29.44
2022-08-17T11:44:47.793Z,29.44
2022-08-17T11:45:47.758Z,29.47
2022-08-17T11:46:51.686Z,29.51
2022-08-17T11:48:02.491Z,29.49
2022-08-17T11:48:48.769Z,29.51
2022-08-17T11:49:47.709Z,29.45
2022-08-17T11:50:47.702Z,29.41
2022-08-17T11:51:47.687Z,29.37
2022-08-17T11:52:47.683Z,29.39
2022-08-17T11:53:47.689Z,29.36
2022-08-17T11:54:47.862Z,29.35
2022-08-17T11:55:48.341Z,29.33
2022-08-17T11:56:47.777Z,29.36
2022-08-17T11:57:48.897Z,29.27
2022-08-17T11:58:48.490Z,29.20
2022-08-17T11:59:47.584Z,29.14
2022-08-17T12:00:47.670Z,28.97
2022-08-17T12:01:51.812Z,28.89
2022-08-17T12:02:48.623Z,28.77
2022-08-17T12:03:55.411Z,28.64
2022-08-17T12:04:48.549Z,28.46
2022-08-17T12:05:47.512Z,28.33
2022-08-17T12:06:51.810Z,28.18
2022-08-17T12:07:47.545Z,28.13
2022-08-17T12:08:47.514Z,28.06
2022-08-17T12:09:47.444Z,27.98
2022-08-17T12:10:47.525Z,27.87
2022-08-17T12:12:11.123Z,27.80
2022-08-17T12:12:48.533Z,27.71
2022-08-17T12:13:47.636Z,27.71
2022-08-17T12:15:52.492Z,27.72
2022-08-17T12:16:47.367Z,27.74
2022-08-17T12:17:47.345Z,27.80
2022-08-17T12:18:47.361Z,27.84
2022-08-17T12:19:47.318Z,27.88
2022-08-17T12:20:47.331Z,27.99
2022-08-17T12:21:47.297Z,28.11
2022-08-17T12:22:47.310Z,28.21
2022-08-17T12:23:47.316Z,28.32
2022-08-17T12:24:48.199Z,28.45
2022-08-17T12:25:47.238Z,28.51
2022-08-17T12:26:47.240Z,28.55
2022-08-17T12:28:05.286Z,28.58
2022-08-17T12:28:48.250Z,28.54
2022-08-17T12:29:47.279Z,28.54
2022-08-17T12:30:47.180Z,28.51
2022-08-17T12:31:47.170Z,28.52
2022-08-17T12:32:47.157Z,28.43
2022-08-17T12:33:47.170Z,28.35
2022-08-17T12:34:47.140Z,28.23
2022-08-17T12:35:47.111Z,28.17
2022-08-17T12:36:48.602Z,28.03
2022-08-17T12:37:47.278Z,27.93
2022-08-17T12:38:47.358Z,27.84
2022-08-17T12:39:50.522Z,27.74
2022-08-17T12:40:47.183Z,27.62
2022-08-17T12:41:47.245Z,27.49
2022-08-17T12:42:47.040Z,27.34
2022-08-17T12:43:47.420Z,27.27
2022-08-17T12:44:50.577Z,27.18
2022-08-17T12:45:46.984Z,27.08
2022-08-17T12:46:46.977Z,26.97
2022-08-17T12:47:47.064Z,26.93
2022-08-17T12:48:59.104Z,26.86
2022-08-17T12:49:47.988Z,26.76
2022-08-17T12:50:47.039Z,26.73
2022-08-17T12:51:46.925Z,26.66
2022-08-17T12:52:46.915Z,26.65
2022-08-17T12:53:47.022Z,26.61